sensor_id;sensor_type;location;lat;lon;timestamp;pressure;altitude;pressure_sealevel;temperature;humidity
79077;BME280;68477;42.698;23.342;2023-03-23T00:01:26;95362.41;;;5.80;83.95
79077;BME280;68477;42.698;23.342;2023-03-23T00:03:55;95362.56;;;5.69;84.67
79077;BME280;68477;42.698;23.342;2023-03-23T00:06:25;95376.06;;;5.45;85.34
79077;BME280;68477;42.698;23.342;2023-03-23T00:08:52;95369.31;;;5.43;85.62
79077;BME280;68477;42.698;23.342;2023-03-23T00:11:26;95371.38;;;5.59;85.95
79077;BME280;68477;42.698;23.342;2023-03-23T00:13:55;95371.66;;;5.36;84.91
79077;BME280;68477;42.698;23.342;2023-03-23T00:16:24;95363.25;;;5.52;84.03
79077;BME280;68477;42.698;23.342;2023-03-23T00:19:08;95369.03;;;5.55;83.61
79077;BME280;68477;42.698;23.342;2023-03-23T00:21:36;95362.88;;;5.47;84.29
79077;BME280;68477;42.698;23.342;2023-03-23T00:24:10;95368.91;;;5.28;85.35
79077;BME280;68477;42.698;23.342;2023-03-23T00:26:38;95378.75;;;5.05;86.72
79077;BME280;68477;42.698;23.342;2023-03-23T00:29:19;95377.25;;;4.93;87.28
79077;BME280;68477;42.698;23.342;2023-03-23T00:31:48;95380.97;;;5.19;86.31
79077;BME280;68477;42.698;23.342;2023-03-23T00:34:17;95384.16;;;5.23;85.42
79077;BME280;68477;42.698;23.342;2023-03-23T00:36:45;95385.09;;;5.32;84.26
79077;BME280;68477;42.698;23.342;2023-03-23T00:39:11;95391.00;;;5.43;84.97
79077;BME280;68477;42.698;23.342;2023-03-23T00:41:37;95389.47;;;5.41;85.65
79077;BME280;68477;42.698;23.342;2023-03-23T00:44:03;95388.53;;;5.42;85.59
79077;BME280;68477;42.698;23.342;2023-03-23T00:46:28;95386.19;;;5.19;86.69
79077;BME280;68477;42.698;23.342;2023-03-23T00:48:55;95389.03;;;4.97;86.65
79077;BME280;68477;42.698;23.342;2023-03-23T00:51:22;95395.75;;;4.90;86.73
79077;BME280;68477;42.698;23.342;2023-03-23T00:53:48;95393.28;;;4.88;87.22
79077;BME280;68477;42.698;23.342;2023-03-23T00:56:14;95405.78;;;5.04;86.33
79077;BME280;68477;42.698;23.342;2023-03-23T00:58:40;95406.34;;;5.17;86.19
79077;BME280;68477;42.698;23.342;2023-03-23T01:01:05;95397.31;;;5.31;85.08
79077;BME280;68477;42.698;23.342;2023-03-23T01:03:31;95402.66;;;5.20;84.82
79077;BME280;68477;42.698;23.342;2023-03-23T01:05:57;95389.91;;;5.46;84.23
79077;BME280;68477;42.698;23.342;2023-03-23T01:08:23;95391.94;;;5.42;84.30
79077;BME280;68477;42.698;23.342;2023-03-23T01:10:50;95397.16;;;5.52;83.97
79077;BME280;68477;42.698;23.342;2023-03-23T01:13:16;95398.28;;;5.40;83.76
79077;BME280;68477;42.698;23.342;2023-03-23T01:15:42;95393.75;;;5.51;82.80
79077;BME280;68477;42.698;23.342;2023-03-23T01:18:09;95388.81;;;5.48;83.62
79077;BME280;68477;42.698;23.342;2023-03-23T01:20:36;95384.69;;;5.46;83.03
79077;BME280;68477;42.698;23.342;2023-03-23T01:23:02;95397.59;;;5.57;83.42
79077;BME280;68477;42.698;23.342;2023-03-23T01:25:30;95385.22;;;5.69;82.73
79077;BME280;68477;42.698;23.342;2023-03-23T01:27:56;95379.19;;;5.78;83.56
79077;BME280;68477;42.698;23.342;2023-03-23T01:30:22;95376.00;;;5.84;83.09
79077;BME280;68477;42.698;23.342;2023-03-23T01:32:49;95384.41;;;5.78;83.23
79077;BME280;68477;42.698;23.342;2023-03-23T01:35:15;95380.25;;;5.85;83.73
79077;BME280;68477;42.698;23.342;2023-03-23T01:37:41;95371.75;;;5.83;84.63
79077;BME280;68477;42.698;23.342;2023-03-23T01:40:08;95369.16;;;5.93;84.48
79077;BME280;68477;42.698;23.342;2023-03-23T01:42:35;95371.75;;;5.64;84.95
79077;BME280;68477;42.698;23.342;2023-03-23T01:47:46;95370.56;;;5.39;86.98
79077;BME280;68477;42.698;23.342;2023-03-23T01:50:12;95365.84;;;5.71;85.63
79077;BME280;68477;42.698;23.342;2023-03-23T01:52:38;95366.38;;;5.84;84.95
79077;BME280;68477;42.698;23.342;2023-03-23T01:55:05;95362.66;;;5.77;85.06
79077;BME280;68477;42.698;23.342;2023-03-23T01:57:31;95361.91;;;5.58;86.88
79077;BME280;68477;42.698;23.342;2023-03-23T02:00:02;95363.53;;;5.59;86.84
79077;BME280;68477;42.698;23.342;2023-03-23T02:02:37;95364.22;;;5.61;87.48
79077;BME280;68477;42.698;23.342;2023-03-23T02:05:09;95362.00;;;5.75;87.02
79077;BME280;68477;42.698;23.342;2023-03-23T02:07:36;95366.81;;;5.90;86.85
79077;BME280;68477;42.698;23.342;2023-03-23T02:10:02;95369.53;;;5.88;87.59
79077;BME280;68477;42.698;23.342;2023-03-23T02:12:27;95367.03;;;6.16;86.08
79077;BME280;68477;42.698;23.342;2023-03-23T02:14:53;95374.34;;;6.02;85.08
79077;BME280;68477;42.698;23.342;2023-03-23T02:17:27;95365.41;;;5.85;85.60
79077;BME280;68477;42.698;23.342;2023-03-23T02:21:03;95367.66;;;5.71;84.52
79077;BME280;68477;42.698;23.342;2023-03-23T02:23:13;95369.00;;;5.65;84.56
79077;BME280;68477;42.698;23.342;2023-03-23T02:33:56;95368.47;;;5.62;82.55
79077;BME280;68477;42.698;23.342;2023-03-23T02:37:27;95368.34;;;5.24;83.74
79077;BME280;68477;42.698;23.342;2023-03-23T02:41:59;95378.78;;;5.24;83.98
79077;BME280;68477;42.698;23.342;2023-03-23T02:44:26;95378.34;;;5.00;84.74
79077;BME280;68477;42.698;23.342;2023-03-23T02:46:55;95379.97;;;4.82;85.28
79077;BME280;68477;42.698;23.342;2023-03-23T02:49:24;95390.13;;;4.94;84.59
79077;BME280;68477;42.698;23.342;2023-03-23T02:51:51;95385.00;;;4.74;85.10
79077;BME280;68477;42.698;23.342;2023-03-23T02:54:18;95391.19;;;4.82;84.01
79077;BME280;68477;42.698;23.342;2023-03-23T02:56:45;95397.66;;;4.78;83.93
79077;BME280;68477;42.698;23.342;2023-03-23T02:59:12;95397.72;;;4.57;84.35
79077;BME280;68477;42.698;23.342;2023-03-23T03:04:17;95402.28;;;4.65;83.56
79077;BME280;68477;42.698;23.342;2023-03-23T03:07:30;95406.72;;;4.44;84.88
79077;BME280;68477;42.698;23.342;2023-03-23T03:10:06;95409.66;;;4.29;85.49
79077;BME280;68477;42.698;23.342;2023-03-23T03:18:05;95425.47;;;4.17;86.62
79077;BME280;68477;42.698;23.342;2023-03-23T03:20:35;95420.06;;;4.29;85.63
79077;BME280;68477;42.698;23.342;2023-03-23T03:23:03;95422.19;;;4.15;86.98
79077;BME280;68477;42.698;23.342;2023-03-23T03:25:33;95426.44;;;4.16;86.88
79077;BME280;68477;42.698;23.342;2023-03-23T03:27:59;95426.84;;;4.42;84.67
79077;BME280;68477;42.698;23.342;2023-03-23T03:30:29;95422.50;;;4.21;86.19
79077;BME280;68477;42.698;23.342;2023-03-23T03:32:57;95424.16;;;4.01;87.29
79077;BME280;68477;42.698;23.342;2023-03-23T03:35:25;95430.13;;;3.92;88.32
79077;BME280;68477;42.698;23.342;2023-03-23T03:37:51;95431.66;;;4.16;86.42
79077;BME280;68477;42.698;23.342;2023-03-23T03:40:20;95435.00;;;4.27;86.65
79077;BME280;68477;42.698;23.342;2023-03-23T03:42:46;95432.25;;;4.59;85.02
79077;BME280;68477;42.698;23.342;2023-03-23T03:45:14;95434.63;;;4.72;84.77
79077;BME280;68477;42.698;23.342;2023-03-23T03:47:42;95431.34;;;4.70;84.20
79077;BME280;68477;42.698;23.342;2023-03-23T03:50:08;95416.94;;;4.66;84.60
79077;BME280;68477;42.698;23.342;2023-03-23T03:52:34;95426.69;;;4.74;84.76
79077;BME280;68477;42.698;23.342;2023-03-23T03:55:00;95419.59;;;4.85;83.85
79077;BME280;68477;42.698;23.342;2023-03-23T03:57:25;95416.03;;;4.86;83.25
79077;BME280;68477;42.698;23.342;2023-03-23T03:59:51;95423.66;;;4.68;84.08
79077;BME280;68477;42.698;23.342;2023-03-23T04:02:17;95418.66;;;4.46;85.36
79077;BME280;68477;42.698;23.342;2023-03-23T04:04:48;95416.63;;;4.59;84.16
79077;BME280;68477;42.698;23.342;2023-03-23T04:07:14;95422.44;;;4.73;83.62
79077;BME280;68477;42.698;23.342;2023-03-23T04:09:45;95417.41;;;4.81;83.44
79077;BME280;68477;42.698;23.342;2023-03-23T04:12:15;95421.09;;;4.78;82.43
79077;BME280;68477;42.698;23.342;2023-03-23T04:14:41;95419.03;;;4.82;82.81
79077;BME280;68477;42.698;23.342;2023-03-23T04:17:06;95422.44;;;4.73;83.13
79077;BME280;68477;42.698;23.342;2023-03-23T04:19:34;95421.69;;;4.91;82.39
79077;BME280;68477;42.698;23.342;2023-03-23T04:22:02;95420.03;;;4.90;83.17
79077;BME280;68477;42.698;23.342;2023-03-23T04:24:28;95420.31;;;4.87;82.88
79077;BME280;68477;42.698;23.342;2023-03-23T04:26:56;95416.31;;;4.93;83.24
79077;BME280;68477;42.698;23.342;2023-03-23T04:29:21;95413.44;;;4.96;82.53
79077;BME280;68477;42.698;23.342;2023-03-23T04:31:47;95418.28;;;4.60;83.91
79077;BME280;68477;42.698;23.342;2023-03-23T04:34:16;95420.25;;;4.37;85.46
79077;BME280;68477;42.698;23.342;2023-03-23T04:36:41;95421.16;;;4.27;86.13
79077;BME280;68477;42.698;23.342;2023-03-23T04:39:08;95432.44;;;4.37;86.51
79077;BME280;68477;42.698;23.342;2023-03-23T04:41:39;95428.97;;;4.27;86.55
79077;BME280;68477;42.698;23.342;2023-03-23T04:44:06;95428.50;;;4.43;86.33
79077;BME280;68477;42.698;23.342;2023-03-23T04:46:32;95430.09;;;4.64;84.86
79077;BME280;68477;42.698;23.342;2023-03-23T04:48:58;95429.47;;;4.82;83.55
79077;BME280;68477;42.698;23.342;2023-03-23T04:51:28;95431.75;;;4.75;84.18
79077;BME280;68477;42.698;23.342;2023-03-23T04:53:54;95423.41;;;4.72;84.57
79077;BME280;68477;42.698;23.342;2023-03-23T04:56:20;95426.34;;;4.88;84.26
79077;BME280;68477;42.698;23.342;2023-03-23T04:58:46;95433.34;;;4.87;84.47
79077;BME280;68477;42.698;23.342;2023-03-23T05:01:12;95441.84;;;4.89;84.39
79077;BME280;68477;42.698;23.342;2023-03-23T05:03:43;95438.31;;;5.00;84.40
79077;BME280;68477;42.698;23.342;2023-03-23T05:06:09;95444.19;;;5.02;83.83
79077;BME280;68477;42.698;23.342;2023-03-23T05:08:34;95453.13;;;5.00;84.60
79077;BME280;68477;42.698;23.342;2023-03-23T05:11:04;95443.41;;;5.11;84.00
79077;BME280;68477;42.698;23.342;2023-03-23T05:13:31;95453.28;;;5.17;83.93
79077;BME280;68477;42.698;23.342;2023-03-23T05:15:56;95445.34;;;5.29;84.07
79077;BME280;68477;42.698;23.342;2023-03-23T05:18:22;95450.88;;;5.45;83.13
79077;BME280;68477;42.698;23.342;2023-03-23T05:20:48;95461.69;;;5.21;83.89
79077;BME280;68477;42.698;23.342;2023-03-23T05:23:14;95459.91;;;5.50;82.74
79077;BME280;68477;42.698;23.342;2023-03-23T05:25:40;95463.97;;;5.05;82.92
79077;BME280;68477;42.698;23.342;2023-03-23T05:28:09;95472.19;;;5.00;83.39
79077;BME280;68477;42.698;23.342;2023-03-23T05:30:36;95462.41;;;4.92;83.49
79077;BME280;68477;42.698;23.342;2023-03-23T05:33:03;95468.97;;;4.87;84.28
79077;BME280;68477;42.698;23.342;2023-03-23T05:35:29;95463.06;;;4.85;84.24
79077;BME280;68477;42.698;23.342;2023-03-23T05:37:55;95468.47;;;5.03;84.35
79077;BME280;68477;42.698;23.342;2023-03-23T05:40:22;95471.00;;;4.83;84.85
79077;BME280;68477;42.698;23.342;2023-03-23T05:42:49;95467.22;;;4.97;84.42
79077;BME280;68477;42.698;23.342;2023-03-23T05:45:15;95475.22;;;5.05;84.17
79077;BME280;68477;42.698;23.342;2023-03-23T05:47:41;95474.22;;;4.96;84.13
79077;BME280;68477;42.698;23.342;2023-03-23T05:50:08;95478.25;;;5.20;83.41
79077;BME280;68477;42.698;23.342;2023-03-23T05:52:35;95477.06;;;5.53;80.89
79077;BME280;68477;42.698;23.342;2023-03-23T05:55:03;95481.72;;;5.30;82.26
79077;BME280;68477;42.698;23.342;2023-03-23T05:57:30;95481.34;;;5.44;83.10
79077;BME280;68477;42.698;23.342;2023-03-23T05:59:56;95481.91;;;5.77;81.67
79077;BME280;68477;42.698;23.342;2023-03-23T06:02:23;95482.47;;;6.00;79.93
79077;BME280;68477;42.698;23.342;2023-03-23T06:04:49;95483.56;;;5.97;79.51
79077;BME280;68477;42.698;23.342;2023-03-23T06:07:15;95492.09;;;5.99;79.46
79077;BME280;68477;42.698;23.342;2023-03-23T06:09:41;95489.59;;;5.88;79.62
79077;BME280;68477;42.698;23.342;2023-03-23T06:12:08;95490.03;;;5.93;80.88
79077;BME280;68477;42.698;23.342;2023-03-23T06:14:35;95496.09;;;6.13;78.74
79077;BME280;68477;42.698;23.342;2023-03-23T06:17:00;95490.81;;;6.23;78.42
79077;BME280;68477;42.698;23.342;2023-03-23T06:19:26;95489.31;;;6.30;77.54
79077;BME280;68477;42.698;23.342;2023-03-23T06:21:53;95492.91;;;6.19;78.81
79077;BME280;68477;42.698;23.342;2023-03-23T06:24:19;95490.72;;;5.95;79.29
79077;BME280;68477;42.698;23.342;2023-03-23T06:26:46;95494.84;;;5.78;80.71
79077;BME280;68477;42.698;23.342;2023-03-23T06:29:13;95496.91;;;6.13;79.55
79077;BME280;68477;42.698;23.342;2023-03-23T06:31:45;95490.63;;;6.63;77.29
79077;BME280;68477;42.698;23.342;2023-03-23T06:34:12;95492.09;;;6.75;77.38
79077;BME280;68477;42.698;23.342;2023-03-23T06:36:38;95489.25;;;6.96;77.00
79077;BME280;68477;42.698;23.342;2023-03-23T06:39:04;95497.19;;;7.14;74.75
79077;BME280;68477;42.698;23.342;2023-03-23T06:41:31;95496.00;;;7.26;75.44
79077;BME280;68477;42.698;23.342;2023-03-23T06:43:58;95500.34;;;7.35;74.64
79077;BME280;68477;42.698;23.342;2023-03-23T06:46:24;95499.09;;;7.39;75.41
79077;BME280;68477;42.698;23.342;2023-03-23T06:48:50;95495.94;;;8.16;71.35
79077;BME280;68477;42.698;23.342;2023-03-23T06:51:16;95498.16;;;8.29;71.50
79077;BME280;68477;42.698;23.342;2023-03-23T06:53:42;95501.91;;;8.09;72.70
79077;BME280;68477;42.698;23.342;2023-03-23T06:56:07;95509.50;;;8.56;72.19
79077;BME280;68477;42.698;23.342;2023-03-23T06:58:33;95505.19;;;8.29;72.05
79077;BME280;68477;42.698;23.342;2023-03-23T07:00:58;95509.28;;;8.49;70.30
79077;BME280;68477;42.698;23.342;2023-03-23T07:03:24;95500.53;;;8.84;72.08
79077;BME280;68477;42.698;23.342;2023-03-23T07:05:51;95507.69;;;8.74;70.02
79077;BME280;68477;42.698;23.342;2023-03-23T07:08:17;95506.53;;;8.77;70.54
79077;BME280;68477;42.698;23.342;2023-03-23T07:10:42;95510.28;;;9.00;68.99
79077;BME280;68477;42.698;23.342;2023-03-23T07:13:09;95511.22;;;8.65;70.42
79077;BME280;68477;42.698;23.342;2023-03-23T07:15:35;95504.34;;;9.82;68.34
79077;BME280;68477;42.698;23.342;2023-03-23T07:18:00;95507.47;;;9.86;65.43
79077;BME280;68477;42.698;23.342;2023-03-23T07:20:26;95509.38;;;10.34;63.53
79077;BME280;68477;42.698;23.342;2023-03-23T07:22:53;95511.59;;;10.05;64.30
79077;BME280;68477;42.698;23.342;2023-03-23T07:25:18;95510.19;;;10.35;64.79
79077;BME280;68477;42.698;23.342;2023-03-23T07:27:46;95503.09;;;10.60;63.14
79077;BME280;68477;42.698;23.342;2023-03-23T07:30:13;95512.16;;;10.49;64.06
79077;BME280;68477;42.698;23.342;2023-03-23T07:32:40;95509.50;;;10.49;64.12
79077;BME280;68477;42.698;23.342;2023-03-23T07:35:06;95510.00;;;10.69;64.93
79077;BME280;68477;42.698;23.342;2023-03-23T07:37:32;95516.56;;;10.81;63.03
79077;BME280;68477;42.698;23.342;2023-03-23T07:39:58;95509.63;;;11.44;61.36
79077;BME280;68477;42.698;23.342;2023-03-23T07:42:23;95513.28;;;11.34;60.11
79077;BME280;68477;42.698;23.342;2023-03-23T07:44:49;95515.03;;;11.50;60.21
79077;BME280;68477;42.698;23.342;2023-03-23T07:47:14;95516.34;;;12.39;57.58
79077;BME280;68477;42.698;23.342;2023-03-23T07:49:40;95512.88;;;12.39;58.57
79077;BME280;68477;42.698;23.342;2023-03-23T07:52:06;95520.63;;;11.86;59.43
79077;BME280;68477;42.698;23.342;2023-03-23T07:54:31;95518.03;;;12.55;58.43
79077;BME280;68477;42.698;23.342;2023-03-23T07:56:57;95514.13;;;12.66;57.44
79077;BME280;68477;42.698;23.342;2023-03-23T07:59:22;95518.34;;;12.75;57.05
79077;BME280;68477;42.698;23.342;2023-03-23T08:01:48;95516.97;;;13.46;55.36
79077;BME280;68477;42.698;23.342;2023-03-23T08:04:13;95516.34;;;13.44;56.44
79077;BME280;68477;42.698;23.342;2023-03-23T08:06:40;95523.34;;;13.22;57.27
79077;BME280;68477;42.698;23.342;2023-03-23T08:09:06;95517.72;;;12.88;57.30
79077;BME280;68477;42.698;23.342;2023-03-23T08:11:36;95524.59;;;12.59;55.25
79077;BME280;68477;42.698;23.342;2023-03-23T08:14:02;95524.34;;;13.36;56.39
79077;BME280;68477;42.698;23.342;2023-03-23T08:16:29;95525.00;;;13.38;54.08
79077;BME280;68477;42.698;23.342;2023-03-23T08:18:54;95523.88;;;13.18;55.70
79077;BME280;68477;42.698;23.342;2023-03-23T08:21:20;95520.78;;;13.73;55.59
79077;BME280;68477;42.698;23.342;2023-03-23T08:23:47;95523.34;;;13.66;54.00
79077;BME280;68477;42.698;23.342;2023-03-23T08:26:13;95520.56;;;14.47;51.59
79077;BME280;68477;42.698;23.342;2023-03-23T08:28:39;95521.59;;;14.10;50.94
79077;BME280;68477;42.698;23.342;2023-03-23T08:31:06;95518.59;;;13.62;53.27
79077;BME280;68477;42.698;23.342;2023-03-23T08:33:33;95518.81;;;13.31;54.75
79077;BME280;68477;42.698;23.342;2023-03-23T08:35:59;95515.97;;;13.62;51.61
79077;BME280;68477;42.698;23.342;2023-03-23T08:38:26;95516.09;;;14.69;47.83
79077;BME280;68477;42.698;23.342;2023-03-23T08:41:00;95512.66;;;14.32;48.66
79077;BME280;68477;42.698;23.342;2023-03-23T08:43:26;95504.09;;;14.30;47.04
79077;BME280;68477;42.698;23.342;2023-03-23T08:45:53;95509.97;;;15.24;45.85
79077;BME280;68477;42.698;23.342;2023-03-23T08:48:19;95506.28;;;15.19;46.33
79077;BME280;68477;42.698;23.342;2023-03-23T08:50:44;95512.63;;;15.24;45.19
79077;BME280;68477;42.698;23.342;2023-03-23T08:53:10;95506.34;;;15.32;43.31
79077;BME280;68477;42.698;23.342;2023-03-23T08:55:36;95506.31;;;15.60;44.28
79077;BME280;68477;42.698;23.342;2023-03-23T08:58:02;95499.97;;;15.20;40.81
79077;BME280;68477;42.698;23.342;2023-03-23T09:00:29;95504.25;;;14.93;41.73
79077;BME280;68477;42.698;23.342;2023-03-23T09:02:54;95504.56;;;15.80;43.11
79077;BME280;68477;42.698;23.342;2023-03-23T09:05:23;95509.03;;;16.34;43.47
79077;BME280;68477;42.698;23.342;2023-03-23T09:07:52;95507.56;;;16.25;41.83
79077;BME280;68477;42.698;23.342;2023-03-23T09:10:18;95509.59;;;16.23;40.20
79077;BME280;68477;42.698;23.342;2023-03-23T09:12:45;95512.84;;;16.12;42.08
79077;BME280;68477;42.698;23.342;2023-03-23T09:15:14;95512.47;;;16.21;38.07
79077;BME280;68477;42.698;23.342;2023-03-23T09:17:46;95503.88;;;16.26;38.66
79077;BME280;68477;42.698;23.342;2023-03-23T09:20:14;95513.00;;;15.97;39.07
79077;BME280;68477;42.698;23.342;2023-03-23T09:22:40;95511.38;;;15.20;40.75
79077;BME280;68477;42.698;23.342;2023-03-23T09:25:08;95507.84;;;15.48;41.36
79077;BME280;68477;42.698;23.342;2023-03-23T09:27:35;95502.19;;;16.05;39.22
79077;BME280;68477;42.698;23.342;2023-03-23T09:30:03;95496.25;;;15.90;40.26
79077;BME280;68477;42.698;23.342;2023-03-23T09:32:32;95502.81;;;16.07;39.58
79077;BME280;68477;42.698;23.342;2023-03-23T09:34:58;95499.25;;;16.61;37.88
79077;BME280;68477;42.698;23.342;2023-03-23T09:37:24;95501.09;;;16.87;37.55
79077;BME280;68477;42.698;23.342;2023-03-23T09:39:49;95494.09;;;16.40;37.31
79077;BME280;68477;42.698;23.342;2023-03-23T09:50:13;95488.03;;;16.92;38.30
79077;BME280;68477;42.698;23.342;2023-03-23T09:53:02;95485.78;;;16.69;38.30
79077;BME280;68477;42.698;23.342;2023-03-23T09:55:30;95484.16;;;16.81;38.45
79077;BME280;68477;42.698;23.342;2023-03-23T10:00:34;95479.22;;;16.58;37.43
79077;BME280;68477;42.698;23.342;2023-03-23T10:03:13;95484.56;;;16.72;36.43
79077;BME280;68477;42.698;23.342;2023-03-23T10:05:52;95488.41;;;16.56;38.28
79077;BME280;68477;42.698;23.342;2023-03-23T10:14:02;95473.72;;;17.00;35.64
79077;BME280;68477;42.698;23.342;2023-03-23T10:16:37;95475.13;;;17.22;35.41
79077;BME280;68477;42.698;23.342;2023-03-23T10:19:35;95476.69;;;17.43;36.26
79077;BME280;68477;42.698;23.342;2023-03-23T10:22:07;95473.81;;;17.51;35.26
79077;BME280;68477;42.698;23.342;2023-03-23T10:27:45;95474.34;;;17.66;35.84
79077;BME280;68477;42.698;23.342;2023-03-23T10:30:29;95468.69;;;17.56;35.59
79077;BME280;68477;42.698;23.342;2023-03-23T10:33:22;95471.75;;;17.53;36.17
79077;BME280;68477;42.698;23.342;2023-03-23T10:36:04;95466.41;;;17.60;36.90
79077;BME280;68477;42.698;23.342;2023-03-23T10:38:43;95462.25;;;17.06;38.16
79077;BME280;68477;42.698;23.342;2023-03-23T10:41:15;95465.66;;;17.46;36.05
79077;BME280;68477;42.698;23.342;2023-03-23T10:43:42;95461.84;;;18.18;35.91
79077;BME280;68477;42.698;23.342;2023-03-23T10:48:56;95453.88;;;19.00;34.79
79077;BME280;68477;42.698;23.342;2023-03-23T10:51:31;95456.94;;;19.03;35.01
79077;BME280;68477;42.698;23.342;2023-03-23T10:54:01;95449.72;;;18.85;33.16
79077;BME280;68477;42.698;23.342;2023-03-23T10:56:42;95452.47;;;19.59;33.29
79077;BME280;68477;42.698;23.342;2023-03-23T10:59:27;95450.22;;;19.19;33.63
79077;BME280;68477;42.698;23.342;2023-03-23T11:01:55;95452.94;;;19.12;32.79
79077;BME280;68477;42.698;23.342;2023-03-23T11:04:23;95455.00;;;19.10;34.46
79077;BME280;68477;42.698;23.342;2023-03-23T11:06:51;95451.06;;;18.95;32.56
79077;BME280;68477;42.698;23.342;2023-03-23T11:09:33;95450.03;;;19.14;33.25
79077;BME280;68477;42.698;23.342;2023-03-23T11:11:59;95452.50;;;18.72;35.25
79077;BME280;68477;42.698;23.342;2023-03-23T11:14:31;95449.00;;;18.72;34.51
79077;BME280;68477;42.698;23.342;2023-03-23T11:16:59;95430.19;;;19.10;32.58
79077;BME280;68477;42.698;23.342;2023-03-23T11:19:35;95436.34;;;19.10;32.01
79077;BME280;68477;42.698;23.342;2023-03-23T11:24:34;95429.09;;;18.74;32.81
79077;BME280;68477;42.698;23.342;2023-03-23T11:27:02;95432.63;;;17.73;35.76
79077;BME280;68477;42.698;23.342;2023-03-23T11:29:32;95424.56;;;18.50;35.22
79077;BME280;68477;42.698;23.342;2023-03-23T11:34:30;95412.13;;;20.27;30.68
79077;BME280;68477;42.698;23.342;2023-03-23T11:39:29;95413.00;;;20.39;29.87
79077;BME280;68477;42.698;23.342;2023-03-23T11:41:58;95407.47;;;21.11;31.20
79077;BME280;68477;42.698;23.342;2023-03-23T11:44:41;95409.72;;;19.95;32.48
79077;BME280;68477;42.698;23.342;2023-03-23T11:55:19;95403.75;;;21.12;28.99
79077;BME280;68477;42.698;23.342;2023-03-23T11:57:47;95400.84;;;20.55;30.62
79077;BME280;68477;42.698;23.342;2023-03-23T12:00:19;95399.69;;;20.74;30.49
79077;BME280;68477;42.698;23.342;2023-03-23T12:06:08;95393.72;;;21.83;29.40
79077;BME280;68477;42.698;23.342;2023-03-23T12:09:06;95382.38;;;20.65;27.70
79077;BME280;68477;42.698;23.342;2023-03-23T12:11:43;95388.50;;;21.36;28.94
79077;BME280;68477;42.698;23.342;2023-03-23T12:14:16;95377.16;;;21.86;27.79
79077;BME280;68477;42.698;23.342;2023-03-23T12:17:14;95380.00;;;22.07;29.86
79077;BME280;68477;42.698;23.342;2023-03-23T12:25:21;95387.06;;;20.28;30.12
79077;BME280;68477;42.698;23.342;2023-03-23T12:41:22;95367.47;;;20.92;29.08
79077;BME280;68477;42.698;23.342;2023-03-23T12:44:10;95367.75;;;20.26;29.67
79077;BME280;68477;42.698;23.342;2023-03-23T12:54:18;95360.41;;;20.98;28.63
79077;BME280;68477;42.698;23.342;2023-03-23T12:59:59;95350.97;;;21.07;27.80
79077;BME280;68477;42.698;23.342;2023-03-23T13:08:20;95355.25;;;21.60;27.70
79077;BME280;68477;42.698;23.342;2023-03-23T13:10:50;95342.97;;;20.96;28.87
79077;BME280;68477;42.698;23.342;2023-03-23T13:13:21;95342.59;;;20.80;29.32
79077;BME280;68477;42.698;23.342;2023-03-23T13:16:12;95341.13;;;20.84;28.73
79077;BME280;68477;42.698;23.342;2023-03-23T13:21:31;95338.75;;;21.00;30.22
79077;BME280;68477;42.698;23.342;2023-03-23T13:24:06;95335.97;;;20.48;29.39
79077;BME280;68477;42.698;23.342;2023-03-23T13:26:38;95336.78;;;21.07;29.21
79077;BME280;68477;42.698;23.342;2023-03-23T13:29:21;95335.97;;;20.83;29.62
79077;BME280;68477;42.698;23.342;2023-03-23T13:31:50;95333.06;;;19.84;30.03
79077;BME280;68477;42.698;23.342;2023-03-23T13:34:34;95332.69;;;20.34;29.58
79077;BME280;68477;42.698;23.342;2023-03-23T13:37:05;95329.91;;;19.75;31.00
79077;BME280;68477;42.698;23.342;2023-03-23T13:43:03;95329.56;;;19.05;32.35
79077;BME280;68477;42.698;23.342;2023-03-23T13:45:52;95327.97;;;20.59;29.73
79077;BME280;68477;42.698;23.342;2023-03-23T13:48:23;95324.25;;;20.60;30.76
79077;BME280;68477;42.698;23.342;2023-03-23T13:51:33;95322.63;;;20.59;29.61
79077;BME280;68477;42.698;23.342;2023-03-23T13:54:42;95318.16;;;20.06;31.09
79077;BME280;68477;42.698;23.342;2023-03-23T13:57:25;95323.47;;;19.95;32.53
79077;BME280;68477;42.698;23.342;2023-03-23T14:00:08;95325.47;;;20.11;30.56
79077;BME280;68477;42.698;23.342;2023-03-23T14:02:39;95317.63;;;20.40;29.53
79077;BME280;68477;42.698;23.342;2023-03-23T14:05:34;95313.13;;;20.52;29.63
79077;BME280;68477;42.698;23.342;2023-03-23T14:10:55;95309.38;;;19.76;31.20
79077;BME280;68477;42.698;23.342;2023-03-23T14:14:00;95309.06;;;19.36;30.97
79077;BME280;68477;42.698;23.342;2023-03-23T14:19:02;95308.00;;;19.85;32.45
79077;BME280;68477;42.698;23.342;2023-03-23T14:21:37;95294.53;;;19.92;30.33
79077;BME280;68477;42.698;23.342;2023-03-23T14:24:10;95302.88;;;19.72;31.60
79077;BME280;68477;42.698;23.342;2023-03-23T14:26:43;95300.69;;;19.51;32.35
79077;BME280;68477;42.698;23.342;2023-03-23T14:29:12;95299.59;;;18.92;33.24
79077;BME280;68477;42.698;23.342;2023-03-23T14:34:32;95300.31;;;18.55;34.60
79077;BME280;68477;42.698;23.342;2023-03-23T14:37:05;95295.91;;;18.49;32.90
79077;BME280;68477;42.698;23.342;2023-03-23T14:39:45;95293.88;;;19.06;32.52
79077;BME280;68477;42.698;23.342;2023-03-23T14:42:16;95296.94;;;19.22;32.43
79077;BME280;68477;42.698;23.342;2023-03-23T14:44:45;95306.97;;;18.71;32.57
79077;BME280;68477;42.698;23.342;2023-03-23T14:47:27;95308.19;;;18.50;32.39
79077;BME280;68477;42.698;23.342;2023-03-23T14:49:55;95305.59;;;18.19;34.19
79077;BME280;68477;42.698;23.342;2023-03-23T14:52:24;95300.91;;;18.39;34.36
79077;BME280;68477;42.698;23.342;2023-03-23T14:54:50;95302.00;;;18.31;34.87
79077;BME280;68477;42.698;23.342;2023-03-23T14:57:28;95289.28;;;18.95;33.18
79077;BME280;68477;42.698;23.342;2023-03-23T14:59:54;95295.81;;;18.38;34.94
79077;BME280;68477;42.698;23.342;2023-03-23T15:02:35;95288.13;;;18.23;34.55